Time;durP1;ratioP1;P1;durP2;ratioP2;P2;SDS_P1;SDS_P2;PMS_P1;PMS_P2;Temp;Humidity;BMP_temperature;BMP_pressure;BME280_temperature;BME280_humidity;BME280_pressure;Samples;Min_cycle;Max_cycle;Signal;HPM_P1;HPM_P2
2022/11/01 00:00:07;;;;;;;16.50;6.00;;;;;;;18.38;69.46;100759.38;5012759;28;20485;-39
2022/11/01 00:02:33;;;;;;;14.85;6.13;;;;;;;18.21;70.17;100745.66;5013089;28;20031;-38
2022/11/01 00:04:58;;;;;;;13.55;6.20;;;;;;;18.32;70.11;100746.31;5012533;28;20500;-39
2022/11/01 00:07:23;;;;;;;14.98;5.97;;;;;;;18.50;69.42;100750.31;5012303;28;20034;-39
2022/11/01 00:09:49;;;;;;;15.05;6.13;;;;;;;18.53;69.50;100745.88;5012305;28;20510;-37
2022/11/01 00:12:14;;;;;;;12.48;5.88;;;;;;;18.55;69.23;100749.38;5012873;28;20033;-41
2022/11/01 00:14:39;;;;;;;11.60;5.65;;;;;;;18.46;69.93;100751.31;5013001;28;20025;-40
2022/11/01 00:17:04;;;;;;;12.63;5.63;;;;;;;18.57;69.46;100752.84;5012719;28;20032;-42
2022/11/01 00:19:30;;;;;;;13.48;5.75;;;;;;;18.65;69.22;100747.41;5012356;28;20022;-39
2022/11/01 00:21:55;;;;;;;12.25;5.47;;;;;;;18.35;70.05;100735.69;5012681;28;20367;-37
2022/11/01 00:24:20;;;;;;;17.48;6.07;;;;;;;18.61;69.48;100727.22;5013124;28;20450;-39
2022/11/01 00:26:46;;;;;;;12.68;5.70;;;;;;;18.61;69.14;100730.75;5012888;28;20030;-40
2022/11/01 00:29:11;;;;;;;11.73;5.85;;;;;;;18.56;69.67;100729.97;5013382;28;20030;-39
2022/11/01 00:31:37;;;;;;;9.95;5.68;;;;;;;18.51;69.97;100726.53;5013053;28;20390;-39
2022/11/01 00:34:04;;;;;;;11.63;5.30;;;;;;;18.67;69.25;100711.25;5014248;28;20032;-39
2022/11/01 00:36:31;;;;;;;12.38;5.22;;;;;;;18.82;68.70;100716.22;5014535;28;20081;-40
2022/11/01 00:38:56;;;;;;;9.65;5.20;;;;;;;18.72;68.96;100716.47;5013535;28;20033;-39
2022/11/01 00:41:22;;;;;;;12.20;5.38;;;;;;;18.72;68.55;100717.34;5010638;28;20022;-39
2022/11/01 00:43:48;;;;;;;10.30;5.57;;;;;;;19.00;67.86;100714.91;5009977;28;20026;-41
2022/11/01 00:46:13;;;;;;;13.85;5.80;;;;;;;19.02;67.85;100716.63;5011862;28;20034;-40
2022/11/01 00:48:39;;;;;;;11.18;5.10;;;;;;;19.13;67.43;100719.00;5011462;28;20026;-39
2022/11/01 00:51:04;;;;;;;11.85;5.38;;;;;;;18.94;68.07;100710.63;5011258;28;20080;-39
2022/11/01 00:53:29;;;;;;;12.48;5.43;;;;;;;19.08;67.81;100706.81;5011253;28;20037;-41
2022/11/01 00:56:02;;;;;;;11.32;5.43;;;;;;;18.98;68.24;100704.38;5011043;28;20025;-40
2022/11/01 00:58:28;;;;;;;13.73;5.22;;;;;;;19.23;67.26;100709.06;5011069;28;20453;-42
2022/11/01 01:00:53;;;;;;;9.27;4.85;;;;;;;19.17;67.51;100704.78;5010960;28;20034;-39
2022/11/01 01:03:19;;;;;;;11.30;5.38;;;;;;;19.08;67.95;100702.41;5011136;28;20058;-40
2022/11/01 01:05:44;;;;;;;11.05;5.30;;;;;;;19.03;67.71;100683.13;5010932;28;20025;-40
2022/11/01 01:08:09;;;;;;;10.43;5.32;;;;;;;19.08;67.51;100689.19;5010725;28;20030;-38
2022/11/01 01:10:35;;;;;;;12.25;5.43;;;;;;;18.75;68.70;100687.31;5010586;28;20025;-40
2022/11/01 01:13:00;;;;;;;12.90;5.40;;;;;;;18.87;68.75;100692.31;5011590;28;20490;-38
2022/11/01 01:15:25;;;;;;;12.55;5.30;;;;;;;19.13;67.72;100691.69;5012131;28;20049;-39
2022/11/01 01:17:51;;;;;;;9.98;5.40;;;;;;;19.12;68.26;100685.53;5011607;28;20402;-40
2022/11/01 01:20:17;;;;;;;10.40;5.43;;;;;;;19.32;67.72;100687.69;5011379;28;20022;-37
2022/11/01 01:22:42;;;;;;;11.35;5.22;;;;;;;19.37;67.46;100685.81;5011146;28;20092;-39
2022/11/01 01:25:09;;;;;;;12.65;5.38;;;;;;;19.08;68.34;100683.91;5010745;28;20136;-40
2022/11/01 01:27:34;;;;;;;9.93;5.10;;;;;;;19.19;68.29;100688.91;5010736;28;20025;-38
2022/11/01 01:29:59;;;;;;;13.40;5.25;;;;;;;19.25;68.35;100688.75;5010852;28;20121;-36
2022/11/01 01:32:25;;;;;;;8.98;4.82;;;;;;;19.48;67.55;100689.06;5010799;28;20044;-39
2022/11/01 01:34:50;;;;;;;9.65;4.68;;;;;;;19.43;67.74;100689.16;5010821;28;20026;-44
2022/11/01 01:37:16;;;;;;;11.00;5.20;;;;;;;19.27;68.11;100686.94;5009511;28;20033;-38
2022/11/01 01:39:42;;;;;;;10.57;4.97;;;;;;;19.43;67.39;100686.50;5011212;28;20065;-39
2022/11/01 01:42:34;;;;;;;9.93;4.85;;;;;;;19.62;67.38;100683.41;5011720;28;20026;-40
2022/11/01 01:44:59;;;;;;;11.90;4.60;;;;;;;19.43;68.23;100675.06;5012479;28;20036;-39
2022/11/01 01:47:32;;;;;;;8.90;4.50;;;;;;;19.67;67.06;100678.88;5011896;28;20026;-37
2022/11/01 01:50:19;;;;;;;12.75;5.10;;;;;;;19.67;66.87;100674.44;5011003;28;20030;-37
2022/11/01 01:52:52;;;;;;;8.15;4.70;;;;;;;19.78;66.77;100682.09;5014997;28;20584;-39
2022/11/01 01:55:23;;;;;;;9.63;4.80;;;;;;;19.80;66.71;100681.16;5017254;28;20026;-39
2022/11/01 01:57:50;;;;;;;10.07;4.60;;;;;;;19.70;67.26;100679.63;5018393;28;20044;-39
2022/11/01 02:00:15;;;;;;;9.13;4.22;;;;;;;19.52;68.48;100689.88;5018021;28;20076;-41
2022/11/01 02:02:41;;;;;;;11.60;4.68;;;;;;;19.50;69.18;100695.19;5018372;28;20518;-41
2022/11/01 02:05:14;;;;;;;10.90;4.80;;;;;;;19.53;69.26;100681.00;5017136;28;20053;-39
2022/11/01 02:07:40;;;;;;;11.23;5.00;;;;;;;19.45;70.36;100686.47;5016878;28;20040;-41
2022/11/01 02:10:06;;;;;;;8.82;4.90;;;;;;;19.45;70.27;100697.06;5016898;28;20026;-41
2022/11/01 02:12:35;;;;;;;13.35;5.22;;;;;;;18.99;72.85;100706.13;5016735;28;20036;-38
2022/11/01 02:15:01;;;;;;;12.93;5.25;;;;;;;19.04;72.78;100709.50;5015559;28;20021;-41
2022/11/01 02:17:36;;;;;;;15.38;5.20;;;;;;;18.76;73.60;100694.34;5017346;28;20033;-40
2022/11/01 02:20:33;;;;;;;9.18;4.30;;;;;;;18.93;72.92;100700.97;5017026;28;20108;-40
2022/11/01 02:23:01;;;;;;;9.30;3.80;;;;;;;18.80;72.71;100710.06;5019522;28;20406;-39
2022/11/01 02:25:50;;;;;;;6.57;3.22;;;;;;;18.61;72.72;100716.69;5018586;28;20115;-39
2022/11/01 02:28:24;;;;;;;5.35;2.60;;;;;;;18.75;71.72;100714.59;5018914;28;20033;-40
2022/11/01 02:31:11;;;;;;;7.57;2.97;;;;;;;18.56;71.84;100721.19;5018102;28;20029;-40
2022/11/01 02:33:44;;;;;;;4.68;2.33;;;;;;;18.44;71.40;100743.41;5018043;28;20510;-40
2022/11/01 02:36:31;;;;;;;4.20;2.10;;;;;;;18.36;70.90;100731.28;5018226;28;20378;-40
2022/11/01 02:39:02;;;;;;;5.47;1.90;;;;;;;18.25;70.53;100742.03;5017662;28;20073;-39
2022/11/01 02:41:41;;;;;;;5.97;2.00;;;;;;;18.30;69.92;100737.53;5017147;28;20018;-39
2022/11/01 02:44:19;;;;;;;5.25;1.80;;;;;;;18.13;69.63;100751.06;5017903;28;20397;-39
2022/11/01 02:47:01;;;;;;;3.80;1.60;;;;;;;18.07;69.26;100750.31;5017024;28;20061;-39
2022/11/01 02:49:35;;;;;;;4.35;1.70;;;;;;;18.08;69.79;100749.44;5016626;28;20033;-39
2022/11/01 02:52:02;;;;;;;3.55;1.45;;;;;;;17.85;69.57;100755.16;5016375;28;20099;-43
2022/11/01 02:54:37;;;;;;;4.10;1.50;;;;;;;18.02;68.35;100760.09;5016923;28;20030;-39
2022/11/01 02:57:27;;;;;;;3.80;1.48;;;;;;;17.59;68.92;100758.19;5017495;28;20022;-40
2022/11/01 02:59:52;;;;;;;6.97;1.27;;;;;;;17.90;67.90;100776.16;5017011;28;20083;-40
2022/11/01 03:02:40;;;;;;;3.97;1.23;;;;;;;17.64;67.64;100773.97;5017702;28;20026;-40
2022/11/01 03:05:34;;;;;;;3.10;1.30;;;;;;;17.60;66.83;100775.78;5014633;28;20053;-38
2022/11/01 03:08:04;;;;;;;3.15;1.20;;;;;;;18.00;65.05;100773.31;5028402;22;20347;-46
2022/11/01 03:10:47;;;;;;;5.03;1.10;;;;;;;17.75;65.42;100778.16;5013005;28;20029;-43
2022/11/01 03:13:28;;;;;;;4.78;1.40;;;;;;;17.89;64.38;100780.56;5013836;28;20030;-46
2022/11/01 03:16:07;;;;;;;3.10;1.45;;;;;;;17.86;65.48;100779.75;5013421;28;20045;-45
2022/11/01 03:18:35;;;;;;;2.67;1.30;;;;;;;17.83;64.84;100800.00;5013721;28;20470;-43
2022/11/01 03:21:14;;;;;;;3.15;1.38;;;;;;;17.63;64.91;100783.63;5013452;28;20490;-41
2022/11/01 03:23:50;;;;;;;3.50;1.30;;;;;;;17.56;63.84;100800.44;5013801;28;20095;-48
2022/11/01 03:26:24;;;;;;;5.22;1.35;;;;;;;17.67;63.39;100795.03;5013388;28;20057;-48
2022/11/01 03:28:54;;;;;;;4.97;1.27;;;;;;;17.66;63.90;100812.59;5013012;28;20445;-45
2022/11/01 03:31:24;;;;;;;6.97;1.35;;;;;;;17.51;62.24;100811.94;5012020;28;20105;-44
2022/11/01 03:33:55;;;;;;;7.38;1.25;;;;;;;17.37;62.25;100815.69;5012511;28;20409;-43
2022/11/01 03:36:24;;;;;;;4.93;1.23;;;;;;;17.48;62.09;100820.78;5012227;28;20026;-43
2022/11/01 03:39:03;;;;;;;3.70;1.00;;;;;;;17.73;60.87;100813.38;5012132;28;20113;-43
2022/11/01 03:41:34;;;;;;;8.40;1.40;;;;;;;17.51;61.56;100820.72;5010356;28;20018;-47
2022/11/01 03:44:01;;;;;;;5.70;1.20;;;;;;;17.67;60.77;100837.19;5012086;28;20481;-44
2022/11/01 03:46:26;;;;;;;10.23;1.70;;;;;;;17.60;61.03;100848.69;5027408;28;20437;-44
2022/11/01 03:48:51;;;;;;;8.63;1.02;;;;;;;17.52;61.77;100843.53;5012138;28;20022;-43
2022/11/01 03:51:17;;;;;;;6.40;1.33;;;;;;;17.19;62.64;100855.47;5013257;28;20026;-43
2022/11/01 03:53:42;;;;;;;5.63;1.15;;;;;;;16.95;63.24;100840.88;5013662;28;20038;-44
2022/11/01 03:56:08;;;;;;;6.63;1.10;;;;;;;16.95;62.57;100843.50;5012155;28;20065;-43
2022/11/01 03:58:44;;;;;;;6.43;1.30;;;;;;;17.56;61.28;100853.16;5011844;28;20156;-44
2022/11/01 04:01:11;;;;;;;6.43;1.30;;;;;;;17.48;62.03;100833.94;5011389;28;20521;-44
2022/11/01 04:03:36;;;;;;;3.45;1.20;;;;;;;17.55;62.11;100861.97;5011757;28;20083;-44
2022/11/01 04:06:02;;;;;;;9.32;1.27;;;;;;;17.68;61.31;100867.94;5011665;28;20117;-44
2022/11/01 04:08:27;;;;;;;6.03;1.55;;;;;;;17.99;60.62;100873.59;5011252;28;20456;-43
2022/11/01 04:10:52;;;;;;;5.70;1.25;;;;;;;17.50;60.75;100879.63;5026644;28;20022;-43
2022/11/01 04:13:18;;;;;;;7.95;1.10;;;;;;;17.06;62.41;100887.25;5011571;28;20026;-42
2022/11/01 04:21:14;;;;;;;8.40;1.13;;;;;;;17.21;60.93;100892.31;5011459;28;20037;-43
2022/11/01 04:23:41;;;;;;;6.28;1.10;;;;;;;17.33;59.53;100895.66;5011360;28;20080;-43
2022/11/01 04:26:11;;;;;;;7.88;1.25;;;;;;;17.39;59.25;100900.84;5009937;28;20029;-44
2022/11/01 04:28:36;;;;;;;7.93;1.42;;;;;;;17.24;59.33;100905.47;5010935;28;20026;-43
2022/11/01 04:31:02;;;;;;;8.15;1.38;;;;;;;17.13;60.00;100910.00;5010972;28;20061;-45
2022/11/01 04:33:27;;;;;;;8.82;1.50;;;;;;;17.34;59.00;100910.56;5011212;28;20578;-45
2022/11/01 04:35:52;;;;;;;6.93;1.48;;;;;;;17.08;59.94;100914.47;5011288;28;20072;-44
2022/11/01 04:38:18;;;;;;;10.38;1.65;;;;;;;17.03;59.60;100915.38;5010820;28;20548;-45
2022/11/01 04:40:43;;;;;;;10.95;1.50;;;;;;;16.93;58.83;100902.34;5010654;28;20025;-42
2022/11/01 04:43:09;;;;;;;9.85;1.75;;;;;;;17.00;57.83;100912.78;5010830;28;20028;-46
2022/11/01 04:45:34;;;;;;;8.70;1.60;;;;;;;17.01;58.26;100900.50;5011100;28;20030;-44
2022/11/01 04:48:00;;;;;;;6.32;1.48;;;;;;;16.69;58.33;100906.13;5011273;28;20383;-44
2022/11/01 04:50:25;;;;;;;7.88;1.52;;;;;;;16.85;58.49;100920.84;5011240;28;20048;-43
2022/11/01 04:52:50;;;;;;;9.48;1.50;;;;;;;16.94;58.17;100909.34;5011665;28;20095;-44
2022/11/01 04:55:15;;;;;;;13.18;1.50;;;;;;;16.75;58.03;100913.09;5011195;28;20021;-42
2022/11/01 04:57:42;;;;;;;8.80;1.40;;;;;;;16.96;57.60;100910.19;5011267;28;20030;-45
2022/11/01 05:00:11;;;;;;;8.43;1.50;;;;;;;16.81;57.74;100915.66;5010695;28;20022;-42
2022/11/01 05:02:38;;;;;;;10.32;1.40;;;;;;;16.65;57.61;100908.81;5010287;28;20084;-43
2022/11/01 05:05:05;;;;;;;14.38;1.73;;;;;;;16.52;57.69;100902.78;5010865;28;20508;-46
2022/11/01 05:07:30;;;;;;;9.05;1.83;;;;;;;16.57;57.70;100906.22;5009522;28;20030;-44
2022/11/01 05:09:56;;;;;;;8.80;1.45;;;;;;;16.61;58.13;100915.88;5010525;28;20030;-45
2022/11/01 05:12:21;;;;;;;9.50;1.38;;;;;;;16.58;57.97;100907.97;5010017;28;20036;-44
2022/11/01 05:14:46;;;;;;;10.32;1.27;;;;;;;16.51;57.86;100920.34;5010799;28;20492;-44
2022/11/01 05:17:12;;;;;;;6.93;1.23;;;;;;;16.55;57.74;100918.53;5010540;28;20061;-45
2022/11/01 05:19:37;;;;;;;11.00;1.60;;;;;;;16.62;57.83;100914.97;5008908;28;20464;-44
2022/11/01 05:22:03;;;;;;;10.43;1.90;;;;;;;16.04;57.99;100902.34;5010396;28;20034;-43
2022/11/01 05:24:28;;;;;;;7.78;1.30;;;;;;;16.53;56.79;100905.38;5010478;28;20088;-44
2022/11/01 05:26:53;;;;;;;10.65;1.60;;;;;;;16.67;56.23;100921.06;5010122;28;20036;-44
2022/11/01 05:29:19;;;;;;;9.73;1.70;;;;;;;16.67;55.97;100910.53;5010200;28;20113;-43
2022/11/01 05:31:44;;;;;;;15.18;1.63;;;;;;;16.48;56.45;100922.09;5010127;28;20028;-45
2022/11/01 05:34:09;;;;;;;10.43;1.77;;;;;;;16.42;56.06;100915.16;5010632;28;20113;-44
2022/11/01 05:36:35;;;;;;;11.70;1.80;;;;;;;16.64;55.61;100921.13;5010238;28;20029;-42
2022/11/01 05:39:00;;;;;;;6.50;1.58;;;;;;;16.68;55.44;100908.78;5011374;28;20022;-43
2022/11/01 05:41:25;;;;;;;12.45;2.03;;;;;;;16.54;55.37;100927.31;5012223;28;20030;-45
2022/11/01 05:43:51;;;;;;;11.50;1.60;;;;;;;16.38;55.65;100921.34;5011065;28;20154;-46
2022/11/01 05:46:16;;;;;;;16.42;2.10;;;;;;;16.32;56.06;100926.66;5010618;28;20037;-44
2022/11/01 05:48:42;;;;;;;8.73;1.55;;;;;;;16.30;56.12;100941.56;5010412;28;20030;-45
2022/11/01 05:51:09;;;;;;;9.95;2.00;;;;;;;16.41;55.69;100930.94;5010113;28;20117;-43
2022/11/01 05:53:34;;;;;;;11.95;1.70;;;;;;;16.52;54.99;100932.59;5011284;28;20374;-43
2022/11/01 05:56:00;;;;;;;12.55;1.88;;;;;;;16.45;55.48;100917.75;5011150;28;20084;-45
2022/11/01 05:58:26;;;;;;;13.68;2.03;;;;;;;16.67;54.98;100931.59;5010928;28;20029;-45
2022/11/01 06:00:58;;;;;;;12.15;2.20;;;;;;;16.83;54.16;100938.44;5011567;28;20034;-44
2022/11/01 06:03:24;;;;;;;14.73;2.03;;;;;;;16.70;54.34;100934.22;5012417;28;20026;-45
2022/11/01 06:05:49;;;;;;;14.52;2.00;;;;;;;16.67;54.26;100942.13;5011596;28;20025;-44
2022/11/01 06:08:15;;;;;;;12.30;1.92;;;;;;;16.70;54.01;100942.09;5012555;28;20044;-43
2022/11/01 06:10:40;;;;;;;18.67;2.55;;;;;;;16.54;54.08;100958.88;5014806;28;20033;-42
2022/11/01 06:13:07;;;;;;;17.65;2.60;;;;;;;16.24;54.99;100952.16;5017338;28;20108;-46
2022/11/01 06:15:32;;;;;;;13.82;2.15;;;;;;;16.38;54.56;100954.66;5019418;28;20022;-44
2022/11/01 06:17:58;;;;;;;15.25;2.10;;;;;;;16.46;54.28;100951.09;5018428;28;20032;-48
2022/11/01 06:20:28;;;;;;;10.57;1.85;;;;;;;16.96;53.04;100947.94;5011469;28;20034;-44
2022/11/01 06:22:54;;;;;;;10.77;1.88;;;;;;;16.71;53.59;100956.97;5010602;28;20087;-41
2022/11/01 06:25:19;;;;;;;14.70;2.33;;;;;;;16.66;53.54;100965.81;5010907;28;20025;-43
2022/11/01 06:27:45;;;;;;;16.40;2.67;;;;;;;16.59;53.76;100967.59;5010795;28;20104;-43
2022/11/01 06:30:10;;;;;;;14.90;2.13;;;;;;;16.66;53.49;100957.91;5011801;28;20030;-42
2022/11/01 06:32:35;;;;;;;16.20;2.20;;;;;;;16.81;53.22;100974.44;5012923;28;20060;-44
2022/11/01 06:35:01;;;;;;;11.60;1.92;;;;;;;16.46;53.99;100952.84;5027691;28;20073;-42
2022/11/01 06:37:26;;;;;;;10.93;1.70;;;;;;;16.43;54.36;100974.78;5012354;28;20041;-43
2022/11/01 06:39:51;;;;;;;16.77;2.38;;;;;;;16.74;53.15;100996.47;5015147;28;20049;-43
2022/11/01 06:42:17;;;;;;;14.52;2.50;;;;;;;16.94;53.25;100991.88;5015729;28;20025;-47
2022/11/01 06:44:42;;;;;;;16.80;2.15;;;;;;;16.61;53.80;101000.97;5015110;28;20103;-43
2022/11/01 06:47:07;;;;;;;18.95;2.20;;;;;;;16.41;54.23;100987.06;5013301;28;20033;-44
2022/11/01 06:49:33;;;;;;;14.65;2.22;;;;;;;16.49;54.06;101002.81;5013335;28;20058;-45
2022/11/01 06:51:59;;;;;;;16.60;2.50;;;;;;;16.42;54.32;101009.00;5013330;28;20509;-45
2022/11/01 06:54:24;;;;;;;19.77;2.92;;;;;;;16.53;54.21;101008.00;5013077;28;20100;-44
2022/11/01 06:56:50;;;;;;;16.17;3.08;;;;;;;16.60;53.88;101003.59;5013229;28;20493;-43
2022/11/01 06:59:15;;;;;;;15.85;2.45;;;;;;;16.33;54.97;101031.00;5013486;28;20092;-42
2022/11/01 07:01:41;;;;;;;17.42;2.17;;;;;;;16.75;54.38;101008.75;5012686;28;20014;-44
2022/11/01 07:04:06;;;;;;;19.85;2.80;;;;;;;16.46;55.18;101031.78;5013096;28;20105;-44
2022/11/01 07:06:32;;;;;;;16.25;3.00;;;;;;;16.73;54.46;101042.09;5013108;28;20017;-44
2022/11/01 07:08:58;;;;;;;19.67;2.45;;;;;;;16.57;54.71;101040.47;5011604;28;20045;-44
2022/11/01 07:11:23;;;;;;;21.80;2.85;;;;;;;16.79;53.64;101041.16;5012205;28;20033;-43
2022/11/01 07:13:49;;;;;;;14.63;2.78;;;;;;;16.65;54.85;101064.13;5012831;28;20034;-44
2022/11/01 07:16:14;;;;;;;16.63;2.55;;;;;;;16.90;54.09;101058.59;5012624;28;20087;-44
2022/11/01 07:18:39;;;;;;;15.05;2.35;;;;;;;16.66;54.65;101029.88;5012489;28;20109;-43
2022/11/01 07:21:05;;;;;;;16.70;2.35;;;;;;;17.18;53.60;101080.28;5012243;28;20028;-43
2022/11/01 07:23:30;;;;;;;16.90;2.42;;;;;;;16.97;53.93;101076.09;5012670;28;20029;-45
2022/11/01 07:25:56;;;;;;;17.23;2.50;;;;;;;17.29;53.07;101085.44;5013085;28;20032;-45
2022/11/01 07:28:23;;;;;;;13.50;2.20;;;;;;;17.28;53.50;101094.22;5013282;28;20052;-44
2022/11/01 07:30:49;;;;;;;14.27;2.33;;;;;;;17.09;53.76;101098.81;5014588;28;20080;-44
2022/11/01 07:33:14;;;;;;;17.52;2.50;;;;;;;16.70;54.62;101099.19;5013943;28;20363;-44
2022/11/01 07:35:40;;;;;;;15.40;2.28;;;;;;;16.76;54.75;101125.47;5012896;28;20037;-43
2022/11/01 07:38:05;;;;;;;17.17;2.78;;;;;;;16.91;54.42;101120.94;5012387;28;20034;-45
2022/11/01 07:40:31;;;;;;;12.50;2.83;;;;;;;16.75;54.79;101119.31;5012622;28;20025;-41
2022/11/01 07:42:58;;;;;;;14.15;2.35;;;;;;;16.50;55.91;101126.50;5013152;28;20049;-43
2022/11/01 07:45:25;;;;;;;9.05;2.10;;;;;;;16.58;55.40;101151.00;5012567;28;20373;-45
2022/11/01 07:47:51;;;;;;;16.90;2.42;;;;;;;16.66;55.32;101135.16;5012244;28;20049;-44
2022/11/01 07:50:17;;;;;;;17.33;2.38;;;;;;;16.82;55.30;101142.09;5011750;28;20026;-44
2022/11/01 07:52:42;;;;;;;16.42;2.55;;;;;;;16.93;55.11;101155.16;5010552;28;20119;-43
2022/11/01 07:55:08;;;;;;;12.88;2.40;;;;;;;17.27;54.32;101140.78;5010779;28;20120;-44
2022/11/01 07:57:38;;;;;;;18.35;2.45;;;;;;;16.88;55.09;101163.09;5011903;28;20025;-45
2022/11/01 08:00:04;;;;;;;21.55;2.50;;;;;;;16.76;55.39;101144.78;5010637;28;20040;-44
2022/11/01 08:02:29;;;;;;;16.92;2.42;;;;;;;16.25;56.64;101169.63;5012106;28;20033;-43
2022/11/01 08:04:54;;;;;;;12.05;2.15;;;;;;;16.36;56.47;101153.75;5010479;28;20172;-43
2022/11/01 08:07:20;;;;;;;17.23;2.58;;;;;;;16.89;55.34;101177.16;5011572;28;20028;-44
2022/11/01 08:09:46;;;;;;;14.75;2.10;;;;;;;16.78;55.65;101156.16;5011822;28;20394;-44
2022/11/01 08:12:11;;;;;;;10.80;2.03;;;;;;;16.90;55.86;101176.25;5011638;28;20032;-43
2022/11/01 08:14:36;;;;;;;14.18;2.10;;;;;;;16.68;56.02;101179.91;5012077;28;20022;-42
2022/11/01 08:17:02;;;;;;;16.83;2.78;;;;;;;16.66;56.08;101190.44;5011681;28;20108;-43
2022/11/01 08:19:27;;;;;;;15.68;2.42;;;;;;;16.78;55.77;101189.50;5011658;28;20056;-41
2022/11/01 08:21:56;;;;;;;19.45;2.17;;;;;;;16.77;55.64;101214.94;5010914;28;20033;-42
2022/11/01 08:24:21;;;;;;;15.25;2.45;;;;;;;16.55;56.21;101221.19;5011395;28;20474;-45
2022/11/01 08:26:46;;;;;;;13.80;1.95;;;;;;;16.60;56.26;101208.91;5026737;28;20026;-47
2022/11/01 08:29:12;;;;;;;14.13;1.90;;;;;;;16.66;56.12;101215.91;5011240;28;20034;-42
2022/11/01 08:31:41;;;;;;;13.52;2.03;;;;;;;16.65;56.26;101225.56;5010948;28;20621;-43
2022/11/01 08:34:07;;;;;;;15.60;2.50;;;;;;;16.72;56.23;101239.56;5011876;28;20030;-44
2022/11/01 08:36:33;;;;;;;16.92;2.47;;;;;;;16.39;55.76;101237.97;5012608;28;20040;-44
2022/11/01 08:38:58;;;;;;;16.75;2.10;;;;;;;17.02;55.09;101236.72;5010631;28;20429;-44
2022/11/01 08:41:24;;;;;;;13.82;2.10;;;;;;;16.96;55.04;101236.78;5012256;28;20026;-43
2022/11/01 08:43:49;;;;;;;17.13;2.20;;;;;;;16.67;55.89;101231.69;5013605;28;20080;-42
2022/11/01 08:46:14;;;;;;;11.98;1.92;;;;;;;16.88;55.70;101231.56;5012283;28;20033;-45
2022/11/01 08:48:39;;;;;;;16.13;2.05;;;;;;;16.78;56.04;101247.41;5011697;28;20368;-44
2022/11/01 08:51:05;;;;;;;17.55;2.40;;;;;;;16.80;56.33;101243.03;5011197;28;20034;-44
2022/11/01 08:53:30;;;;;;;13.45;2.40;;;;;;;16.52;56.36;101250.19;5011689;28;20509;-45
2022/11/01 08:55:56;;;;;;;13.63;2.35;;;;;;;16.72;56.35;101258.88;5011905;28;20033;-44
2022/11/01 08:58:21;;;;;;;11.40;2.05;;;;;;;17.18;55.49;101261.22;5011929;28;20080;-43
2022/11/01 09:00:47;;;;;;;13.27;2.20;;;;;;;17.17;55.65;101260.34;5011606;28;20466;-47
2022/11/01 09:03:13;;;;;;;14.50;2.42;;;;;;;16.85;55.73;101270.22;5012248;28;20099;-46
2022/11/01 09:05:38;;;;;;;18.58;2.53;;;;;;;17.02;56.13;101261.31;5015106;28;20026;-44
2022/11/01 09:08:04;;;;;;;12.57;2.00;;;;;;;16.79;56.78;101268.47;5037887;22;20057;-39
2022/11/01 09:10:29;;;;;;;12.70;2.42;;;;;;;17.08;56.15;101272.72;5014248;28;20032;-39
2022/11/01 09:12:56;;;;;;;16.30;2.53;;;;;;;17.01;56.42;101272.75;5014079;28;20054;-41
2022/11/01 09:15:21;;;;;;;15.20;2.03;;;;;;;17.01;56.21;101285.06;5013759;28;20072;-39
2022/11/01 09:17:46;;;;;;;13.65;2.20;;;;;;;16.75;56.94;101298.38;5013513;28;20026;-40
2022/11/01 09:20:13;;;;;;;14.57;2.28;;;;;;;17.00;56.26;101302.63;5013914;28;20022;-40
2022/11/01 09:22:39;;;;;;;18.00;2.88;;;;;;;17.09;56.14;101304.28;5013879;28;20037;-39
2022/11/01 09:25:05;;;;;;;17.20;2.20;;;;;;;16.97;56.05;101301.75;5013883;28;20390;-41
2022/11/01 09:27:30;;;;;;;13.35;2.38;;;;;;;16.94;56.84;101307.03;5013788;28;20029;-37
2022/11/01 09:29:56;;;;;;;15.38;2.20;;;;;;;17.04;56.07;101321.91;5010958;28;20092;-39
2022/11/01 09:32:21;;;;;;;18.08;2.10;;;;;;;17.00;55.86;101320.16;5010737;28;20032;-41
2022/11/01 09:34:48;;;;;;;14.35;2.13;;;;;;;16.99;56.40;101310.50;5010361;28;20021;-42
2022/11/01 09:37:14;;;;;;;18.35;2.50;;;;;;;16.90;56.01;101327.22;5010586;28;20052;-40
2022/11/01 09:39:39;;;;;;;12.85;1.90;;;;;;;17.23;55.57;101323.53;5010460;28;20401;-39
2022/11/01 09:42:13;;;;;;;15.43;2.35;;;;;;;17.22;55.87;101329.69;5010690;28;20104;-42
2022/11/01 09:44:44;;;;;;;16.15;2.45;;;;;;;17.28;55.38;101324.38;5010640;28;20117;-40
2022/11/01 09:47:29;;;;;;;13.68;2.40;;;;;;;17.07;56.09;101331.56;5010678;28;20029;-37
2022/11/01 09:50:04;;;;;;;13.48;2.20;;;;;;;17.05;56.31;101331.56;5010380;28;20073;-39
2022/11/01 09:52:29;;;;;;;13.70;2.05;;;;;;;17.02;56.57;101329.78;5010194;28;20478;-42
2022/11/01 09:54:57;;;;;;;15.95;2.15;;;;;;;17.01;56.70;101321.94;5010908;28;20053;-42
2022/11/01 09:57:38;;;;;;;15.45;1.90;;;;;;;16.99;57.15;101337.72;5010747;28;20026;-39
2022/11/01 10:00:13;;;;;;;13.05;2.10;;;;;;;17.45;55.68;101337.41;5010503;28;20025;-38
2022/11/01 10:03:14;;;;;;;12.23;2.00;;;;;;;17.58;55.46;101330.28;5010341;28;20486;-41
2022/11/01 10:05:53;;;;;;;14.23;2.33;;;;;;;17.44;56.38;101340.97;5010834;28;20506;-39
2022/11/01 10:08:40;;;;;;;13.68;2.15;;;;;;;17.52;55.79;101344.41;5010679;28;20028;-37
2022/11/01 10:11:19;;;;;;;18.67;2.42;;;;;;;17.47;56.14;101354.09;5011567;28;20105;-40
2022/11/01 10:14:10;;;;;;;11.00;1.98;;;;;;;17.69;55.68;101361.00;5014903;28;20029;-40
2022/11/01 10:16:42;;;;;;;11.65;1.95;;;;;;;18.13;54.57;101354.44;5014691;28;20030;-40
2022/11/01 10:19:14;;;;;;;20.38;2.72;;;;;;;18.17;54.12;101361.47;5015905;28;20033;-42
2022/11/01 10:21:46;;;;;;;15.00;2.20;;;;;;;17.76;55.38;101373.25;5014640;28;20033;-39
2022/11/01 10:24:20;;;;;;;14.68;1.88;;;;;;;17.51;55.37;101374.28;5014960;28;20025;-37
2022/11/01 10:26:52;;;;;;;17.10;2.10;;;;;;;18.15;54.43;101373.78;5014237;28;20522;-40
2022/11/01 10:29:36;;;;;;;10.18;2.03;;;;;;;17.97;54.24;101392.44;5014378;28;20501;-40
2022/11/01 10:32:03;;;;;;;14.52;2.17;;;;;;;18.23;53.70;101385.16;5014376;28;20033;-42
2022/11/01 10:34:33;;;;;;;11.43;2.38;;;;;;;18.20;53.73;101380.75;5014341;28;20022;-42
2022/11/01 10:37:29;;;;;;;12.13;1.80;;;;;;;17.88;54.06;101376.66;5014682;28;20025;-40
2022/11/01 10:40:00;;;;;;;11.57;2.20;;;;;;;18.16;54.14;101379.06;5014978;28;20025;-41
2022/11/01 10:42:27;;;;;;;13.98;2.10;;;;;;;18.35;52.59;101370.94;5014187;28;20433;-39
2022/11/01 10:44:57;;;;;;;10.60;1.73;;;;;;;18.35;53.36;101387.66;5012815;28;20030;-40
2022/11/01 10:47:24;;;;;;;14.02;2.20;;;;;;;18.57;52.82;101373.34;5014148;28;20026;-42
2022/11/01 10:50:11;;;;;;;13.00;2.20;;;;;;;18.13;53.65;101386.97;5014059;28;20387;-41
2022/11/01 10:52:51;;;;;;;11.20;2.10;;;;;;;18.23;53.48;101386.03;5013298;28;20032;-40
2022/11/01 10:55:31;;;;;;;12.02;2.00;;;;;;;18.47;52.76;101378.75;5012687;28;20021;-40
2022/11/01 10:58:18;;;;;;;13.23;2.00;;;;;;;18.19;53.31;101373.72;5014329;28;20041;-41
2022/11/01 11:00:44;;;;;;;8.68;1.98;;;;;;;18.13;53.74;101388.75;5014586;28;20367;-40
2022/11/01 11:03:18;;;;;;;11.07;1.80;;;;;;;18.55;53.18;101379.53;5014583;28;20028;-42
2022/11/01 11:05:45;;;;;;;12.98;2.00;;;;;;;18.31;53.83;101383.28;5015209;28;20091;-41
2022/11/01 11:08:16;;;;;;;16.45;2.17;;;;;;;18.53;52.69;101387.47;5015327;28;20376;-41
2022/11/01 11:10:43;;;;;;;12.60;1.80;;;;;;;18.16;52.91;101396.66;5015101;28;20049;-39
2022/11/01 11:13:09;;;;;;;14.68;2.17;;;;;;;18.34;52.98;101400.88;5014831;28;20084;-40
2022/11/01 11:15:54;;;;;;;14.15;2.03;;;;;;;18.25;52.93;101386.88;5015416;28;20026;-41
2022/11/01 11:18:29;;;;;;;13.63;2.15;;;;;;;18.70;52.08;101378.50;5014804;28;20054;-42
2022/11/01 11:20:59;;;;;;;11.38;1.98;;;;;;;18.10;52.96;101379.13;5015123;28;20030;-41
2022/11/01 11:23:26;;;;;;;13.13;2.03;;;;;;;18.44;52.52;101378.75;5014340;28;20104;-38
2022/11/01 11:25:51;;;;;;;13.10;1.90;;;;;;;18.02;53.29;101380.06;5014521;28;20105;-40
2022/11/01 11:28:29;;;;;;;13.00;2.00;;;;;;;18.35;52.99;101386.78;5012495;28;20022;-41
2022/11/01 11:30:57;;;;;;;12.07;1.70;;;;;;;18.58;52.35;101371.59;5014415;28;20056;-40